createdAt,value
2023-05-17T00:01:32.431Z,7.10
2023-05-17T00:04:05.189Z,7.43
2023-05-17T00:06:38.013Z,7.43
2023-05-17T00:09:10.580Z,7.68
2023-05-17T00:11:43.649Z,7.25
2023-05-17T00:14:16.581Z,6.72
2023-05-17T00:16:49.426Z,6.45
2023-05-17T00:19:22.045Z,7.65
2023-05-17T00:21:54.993Z,7.15
2023-05-17T00:24:27.540Z,6.32
2023-05-17T00:27:00.475Z,7.80
2023-05-17T00:29:33.079Z,7.50
2023-05-17T00:32:06.267Z,7.60
2023-05-17T00:34:38.800Z,7.40
2023-05-17T00:37:11.619Z,7.88
2023-05-17T00:39:44.230Z,7.78
2023-05-17T00:42:17.078Z,7.13
2023-05-17T00:44:49.572Z,8.40
2023-05-17T00:47:22.528Z,7.45
2023-05-17T00:49:55.206Z,7.22
2023-05-17T00:52:28.042Z,7.38
2023-05-17T00:55:00.714Z,6.40
2023-05-17T00:57:33.942Z,6.47
2023-05-17T01:00:07.217Z,6.07
2023-05-17T01:02:40.144Z,5.88
2023-05-17T01:05:12.704Z,6.15
2023-05-17T01:07:45.480Z,7.03
2023-05-17T01:10:18.236Z,5.78
2023-05-17T01:13:06.180Z,5.75
2023-05-17T01:15:44.874Z,5.93
2023-05-17T01:18:17.892Z,5.95
2023-05-17T01:20:52.897Z,6.13
2023-05-17T01:23:47.238Z,6.50
2023-05-17T01:26:39.517Z,6.38
2023-05-17T01:29:16.396Z,5.55
2023-05-17T01:31:50.033Z,5.40
2023-05-17T01:34:27.809Z,6.13
2023-05-17T01:37:00.551Z,7.53
2023-05-17T01:39:33.574Z,5.32
2023-05-17T01:42:22.858Z,5.38
2023-05-17T01:45:28.160Z,6.82
2023-05-17T01:48:13.427Z,6.25
2023-05-17T01:50:51.238Z,6.50
2023-05-17T01:53:37.071Z,5.78
2023-05-17T01:56:20.329Z,6.43
2023-05-17T01:58:53.391Z,6.15
2023-05-17T02:01:28.773Z,6.35
2023-05-17T02:04:01.544Z,6.57
2023-05-17T02:06:34.438Z,5.72
2023-05-17T02:09:07.035Z,6.45
2023-05-17T02:11:39.889Z,6.25
2023-05-17T02:14:12.447Z,8.10
2023-05-17T02:16:45.251Z,7.55
2023-05-17T02:19:17.870Z,6.85
2023-05-17T02:21:50.844Z,7.07
2023-05-17T02:24:23.380Z,7.22
2023-05-17T02:26:56.255Z,8.05
2023-05-17T02:29:28.746Z,9.02
2023-05-17T02:32:01.930Z,8.93
2023-05-17T02:34:34.495Z,9.02
2023-05-17T02:37:07.387Z,9.70
2023-05-17T02:39:39.960Z,9.65
2023-05-17T02:42:12.849Z,10.27
2023-05-17T02:44:45.481Z,10.65
2023-05-17T02:47:19.044Z,9.50
2023-05-17T02:49:51.761Z,6.22
2023-05-17T02:52:24.541Z,9.55
2023-05-17T02:54:57.166Z,9.70
2023-05-17T02:57:29.940Z,9.60
2023-05-17T03:00:02.429Z,6.55
2023-05-17T03:02:35.489Z,8.15
2023-05-17T03:05:08.483Z,4.07
2023-05-17T03:07:41.612Z,6.45
2023-05-17T03:10:14.357Z,4.75
2023-05-17T03:12:47.139Z,5.55
2023-05-17T03:15:19.782Z,6.95
2023-05-17T03:17:53.232Z,6.45
2023-05-17T03:20:25.795Z,7.10
2023-05-17T03:22:58.607Z,7.20
2023-05-17T03:25:31.752Z,7.47
2023-05-17T03:28:04.902Z,7.60
2023-05-17T03:30:37.594Z,6.70
2023-05-17T03:33:10.538Z,5.43
2023-05-17T03:35:43.202Z,5.65
2023-05-17T03:38:16.154Z,7.68
2023-05-17T03:40:48.823Z,6.45
2023-05-17T03:43:21.692Z,5.43
2023-05-17T03:45:54.274Z,5.97
2023-05-17T03:48:27.060Z,2.60
2023-05-17T03:50:59.655Z,6.15
2023-05-17T03:53:32.455Z,6.82
2023-05-17T03:56:05.338Z,6.38
2023-05-17T03:58:38.406Z,2.22
2023-05-17T04:01:10.986Z,6.60
2023-05-17T04:03:43.855Z,6.03
2023-05-17T04:06:16.778Z,5.47
2023-05-17T04:08:49.584Z,5.65
2023-05-17T04:11:24.265Z,3.97
2023-05-17T04:13:57.177Z,5.95
2023-05-17T04:16:29.727Z,5.85
2023-05-17T04:19:02.785Z,4.63
2023-05-17T04:21:35.445Z,3.67
2023-05-17T04:24:08.867Z,5.00
2023-05-17T04:26:41.390Z,4.45
2023-05-17T04:29:14.175Z,3.47
2023-05-17T04:31:48.996Z,4.18
2023-05-17T04:34:25.143Z,3.45
2023-05-17T04:36:58.255Z,2.35
2023-05-17T04:39:31.548Z,4.25
2023-05-17T04:42:04.363Z,4.13
2023-05-17T04:44:37.204Z,2.80
2023-05-17T04:47:10.172Z,5.28
2023-05-17T04:49:43.403Z,5.38
2023-05-17T04:52:15.920Z,5.15
2023-05-17T04:54:48.697Z,2.67
2023-05-17T04:57:21.717Z,2.33
2023-05-17T04:59:54.559Z,4.75
2023-05-17T05:02:27.066Z,4.43
2023-05-17T05:05:00.848Z,3.05
2023-05-17T05:07:33.541Z,4.85
2023-05-17T05:10:07.034Z,4.88
2023-05-17T05:12:39.564Z,4.15
2023-05-17T05:15:12.639Z,4.03
2023-05-17T05:17:45.197Z,3.00
2023-05-17T05:20:18.201Z,3.03
2023-05-17T05:22:50.873Z,3.70
2023-05-17T05:25:23.680Z,2.90
2023-05-17T05:27:56.275Z,2.40
2023-05-17T05:30:29.067Z,2.38
2023-05-17T05:33:01.749Z,2.63
2023-05-17T05:35:34.755Z,2.85
2023-05-17T05:38:07.831Z,2.20
2023-05-17T05:40:40.678Z,1.63
2023-05-17T05:43:13.194Z,2.13
2023-05-17T05:45:47.381Z,1.75
2023-05-17T05:48:20.110Z,1.15
2023-05-17T05:50:53.017Z,1.83
2023-05-17T05:53:25.739Z,2.20
2023-05-17T05:56:00.464Z,1.13
2023-05-17T05:58:33.364Z,1.15
2023-05-17T06:01:07.003Z,2.78
2023-05-17T06:03:39.530Z,2.38
2023-05-17T06:06:12.515Z,2.08
2023-05-17T06:08:47.257Z,2.47
2023-05-17T06:11:21.317Z,2.17
2023-05-17T06:13:53.891Z,2.75
2023-05-17T06:16:26.776Z,1.73
2023-05-17T06:18:59.428Z,1.92
2023-05-17T06:21:32.330Z,2.03
2023-05-17T06:24:05.355Z,1.90
2023-05-17T06:26:38.251Z,3.10
2023-05-17T06:29:10.893Z,1.85
2023-05-17T06:31:43.703Z,2.47
2023-05-17T06:34:16.255Z,2.03
2023-05-17T06:36:49.469Z,1.33
2023-05-17T06:39:22.051Z,2.45
2023-05-17T06:41:54.946Z,2.40
2023-05-17T06:44:27.479Z,2.30
2023-05-17T06:47:01.063Z,1.73
2023-05-17T06:49:33.698Z,1.60
2023-05-17T06:52:06.539Z,1.83
2023-05-17T06:54:39.084Z,1.85
2023-05-17T06:57:11.928Z,2.53
2023-05-17T06:59:44.520Z,2.03
2023-05-17T07:02:17.404Z,2.13
2023-05-17T07:04:50.123Z,1.80
2023-05-17T07:07:22.992Z,2.30
2023-05-17T07:09:55.603Z,2.00
2023-05-17T07:12:28.751Z,1.52
2023-05-17T07:15:01.468Z,2.13
2023-05-17T07:17:34.535Z,1.27
2023-05-17T07:20:08.058Z,2.17
2023-05-17T07:22:41.319Z,1.98
2023-05-17T07:25:15.161Z,1.05
2023-05-17T07:27:47.982Z,2.30
2023-05-17T07:30:20.540Z,2.55
2023-05-17T07:32:53.351Z,1.50
2023-05-17T07:35:26.173Z,2.47
2023-05-17T07:37:59.748Z,1.33
2023-05-17T07:40:32.265Z,2.63
2023-05-17T07:43:05.919Z,1.73
2023-05-17T07:45:38.488Z,1.17
2023-05-17T07:48:11.498Z,2.03
2023-05-17T07:50:44.706Z,1.65
2023-05-17T07:53:17.552Z,1.05
2023-05-17T07:55:50.212Z,1.10
2023-05-17T07:58:23.042Z,2.10
2023-05-17T08:00:55.623Z,1.75
2023-05-17T08:03:28.870Z,1.85
2023-05-17T08:06:01.516Z,3.03
2023-05-17T08:08:34.389Z,2.95
2023-05-17T08:11:07.447Z,2.33
2023-05-17T08:13:40.611Z,1.35
2023-05-17T08:16:14.888Z,1.73
2023-05-17T08:18:48.106Z,1.45
2023-05-17T08:21:20.777Z,1.77
2023-05-17T08:23:53.710Z,1.23
2023-05-17T08:26:26.266Z,2.25
2023-05-17T08:28:59.206Z,2.42
2023-05-17T08:31:32.708Z,2.70
2023-05-17T08:34:05.732Z,1.63
2023-05-17T08:36:39.370Z,2.05
2023-05-17T08:39:12.711Z,1.92
2023-05-17T08:41:47.445Z,1.83
2023-05-17T08:44:21.051Z,1.88
2023-05-17T08:46:56.592Z,1.60
2023-05-17T08:49:33.298Z,2.97
2023-05-17T08:52:10.181Z,2.70
2023-05-17T08:54:43.080Z,2.40
2023-05-17T08:57:18.194Z,2.33
2023-05-17T08:59:52.199Z,3.35
2023-05-17T09:02:25.921Z,1.98
2023-05-17T09:04:58.963Z,2.10
2023-05-17T09:07:31.589Z,1.77
2023-05-17T09:10:06.091Z,1.77
2023-05-17T09:12:38.651Z,1.75
2023-05-17T09:15:16.784Z,1.90
2023-05-17T09:17:54.901Z,1.40
2023-05-17T09:20:36.627Z,1.98
2023-05-17T09:23:13.401Z,2.38
2023-05-17T09:25:50.074Z,2.00
2023-05-17T09:28:23.580Z,2.88
2023-05-17T09:30:56.697Z,2.17
2023-05-17T09:33:30.603Z,2.75
2023-05-17T09:36:03.563Z,2.63
2023-05-17T09:38:36.079Z,1.65
2023-05-17T09:41:08.867Z,1.63
2023-05-17T09:43:41.397Z,1.80
2023-05-17T09:46:15.699Z,2.40
2023-05-17T09:48:55.225Z,1.80
2023-05-17T09:51:35.166Z,1.95
2023-05-17T09:54:08.348Z,1.90
2023-05-17T09:56:41.553Z,2.85
2023-05-17T09:59:15.728Z,2.88
2023-05-17T10:01:50.522Z,2.22
2023-05-17T10:04:27.630Z,1.75
2023-05-17T10:07:01.379Z,2.58
2023-05-17T10:09:37.019Z,1.90
2023-05-17T10:12:14.430Z,1.98
2023-05-17T10:14:47.944Z,2.22
2023-05-17T10:17:21.061Z,2.53
2023-05-17T10:19:54.598Z,1.50
2023-05-17T10:22:29.352Z,2.65
2023-05-17T10:25:02.331Z,2.35
2023-05-17T10:27:35.234Z,2.13
2023-05-17T10:30:10.215Z,1.98
2023-05-17T10:32:45.408Z,2.95
2023-05-17T10:35:18.705Z,3.03
2023-05-17T10:37:51.857Z,2.15
2023-05-17T10:40:25.374Z,1.98
2023-05-17T10:42:59.911Z,2.08
2023-05-17T10:45:32.986Z,2.65
2023-05-17T10:48:07.267Z,2.08
2023-05-17T10:50:47.437Z,2.15
2023-05-17T10:53:27.399Z,3.03
2023-05-17T10:56:00.030Z,2.75
2023-05-17T10:58:33.085Z,2.22
2023-05-17T11:01:07.574Z,2.95
2023-05-17T11:03:42.054Z,2.80
2023-05-17T11:06:23.488Z,2.60
2023-05-17T11:09:17.715Z,3.17
2023-05-17T11:12:07.938Z,2.47
2023-05-17T11:14:54.029Z,1.60
2023-05-17T11:17:34.024Z,2.10
2023-05-17T11:23:06.254Z,1.98
2023-05-17T11:25:40.648Z,1.73
2023-05-17T11:28:22.161Z,2.83
2023-05-17T11:31:01.578Z,2.80
2023-05-17T11:33:40.366Z,2.00
2023-05-17T11:36:22.090Z,1.83
2023-05-17T11:39:14.566Z,1.98
2023-05-17T11:41:51.826Z,2.25
2023-05-17T11:44:29.771Z,1.90
2023-05-17T11:47:11.464Z,1.80
2023-05-17T11:49:44.544Z,2.13
2023-05-17T11:52:21.185Z,2.22
2023-05-17T11:54:54.880Z,1.77
2023-05-17T11:57:32.766Z,2.00
2023-05-17T12:00:06.174Z,2.10
2023-05-17T12:02:39.180Z,2.33
2023-05-17T12:05:12.199Z,2.58
2023-05-17T12:07:46.348Z,2.33
2023-05-17T12:10:19.235Z,2.50
2023-05-17T12:12:52.844Z,2.45
2023-05-17T12:15:25.996Z,2.40
2023-05-17T12:17:59.048Z,2.55
2023-05-17T12:20:33.405Z,2.72
2023-05-17T12:23:06.484Z,3.45
2023-05-17T12:25:39.159Z,1.92
2023-05-17T12:28:22.433Z,2.13
2023-05-17T12:30:58.967Z,1.80
2023-05-17T12:33:39.969Z,1.90
2023-05-17T12:36:13.778Z,2.20
2023-05-17T12:38:47.301Z,3.47
2023-05-17T12:41:22.914Z,2.00
2023-05-17T12:44:06.092Z,1.70
2023-05-17T12:46:54.192Z,1.80
2023-05-17T12:49:27.630Z,2.40
2023-05-17T12:52:05.434Z,3.03
2023-05-17T12:54:40.089Z,1.63
2023-05-17T12:57:16.897Z,2.13
2023-05-17T12:59:52.634Z,1.17
2023-05-17T13:02:25.649Z,1.75
2023-05-17T13:04:58.768Z,2.15
2023-05-17T13:07:31.482Z,2.33
2023-05-17T13:10:04.616Z,1.42
2023-05-17T13:12:40.422Z,1.30
2023-05-17T13:15:21.224Z,1.92
2023-05-17T13:20:28.029Z,1.33
2023-05-17T13:23:00.894Z,1.95
2023-05-17T13:25:34.085Z,2.10
2023-05-17T13:28:06.688Z,1.85
2023-05-17T13:30:40.138Z,1.58
2023-05-17T13:33:12.915Z,1.92
2023-05-17T13:35:45.898Z,2.20
2023-05-17T13:38:18.495Z,1.38
2023-05-17T13:40:52.028Z,1.42
2023-05-17T13:43:24.627Z,1.42
2023-05-17T13:45:59.007Z,1.42
2023-05-17T13:48:31.838Z,1.77
2023-05-17T13:51:04.905Z,1.58
2023-05-17T13:53:38.805Z,1.70
2023-05-17T13:56:12.039Z,1.08
2023-05-17T13:58:44.900Z,1.50
2023-05-17T14:01:18.799Z,1.00
2023-05-17T14:03:51.612Z,0.90
2023-05-17T14:06:24.737Z,1.27
2023-05-17T14:08:59.659Z,1.45
2023-05-17T14:11:33.236Z,1.40
2023-05-17T14:14:06.324Z,1.15
2023-05-17T14:16:39.443Z,0.70
2023-05-17T14:19:12.243Z,1.38
2023-05-17T14:21:45.120Z,1.13
2023-05-17T14:24:17.797Z,1.65
2023-05-17T14:26:50.815Z,0.98
2023-05-17T14:29:23.782Z,1.05
2023-05-17T14:31:56.708Z,1.40
2023-05-17T14:34:30.935Z,0.77
2023-05-17T14:37:03.936Z,0.90
2023-05-17T14:39:36.990Z,2.22
2023-05-17T14:42:10.220Z,1.50
2023-05-17T14:44:42.901Z,0.80
2023-05-17T14:47:16.588Z,1.10
2023-05-17T14:49:49.269Z,2.13
2023-05-17T14:52:22.836Z,0.98
2023-05-17T14:54:55.560Z,0.95
2023-05-17T14:57:28.528Z,0.70
2023-05-17T15:00:01.489Z,0.90
2023-05-17T15:02:34.582Z,1.58
2023-05-17T15:05:08.037Z,1.70
2023-05-17T15:07:41.592Z,1.65
2023-05-17T15:10:14.280Z,1.02
2023-05-17T15:12:47.700Z,0.90
2023-05-17T15:15:22.310Z,1.48
2023-05-17T15:17:55.301Z,0.63
2023-05-17T15:20:28.096Z,1.83
2023-05-17T15:23:01.053Z,1.25
2023-05-17T15:25:33.604Z,0.98
2023-05-17T15:28:06.522Z,1.83
2023-05-17T15:30:41.350Z,1.77
2023-05-17T15:33:14.873Z,2.95
2023-05-17T15:35:47.827Z,1.55
2023-05-17T15:38:20.827Z,1.80
2023-05-17T15:41:06.456Z,1.13
2023-05-17T15:43:39.458Z,1.63
2023-05-17T15:46:12.365Z,2.25
2023-05-17T15:48:45.636Z,1.55
2023-05-17T15:51:18.267Z,1.27
2023-05-17T15:53:51.261Z,1.52
2023-05-17T15:56:23.801Z,1.83
2023-05-17T15:58:56.800Z,1.92
2023-05-17T16:01:29.333Z,1.38
2023-05-17T16:04:02.234Z,0.90
2023-05-17T16:06:36.786Z,1.52
2023-05-17T16:09:09.723Z,1.10
2023-05-17T16:11:42.424Z,1.70
2023-05-17T16:14:15.256Z,2.38
2023-05-17T16:16:47.773Z,1.70
2023-05-17T16:19:20.702Z,1.95
2023-05-17T16:21:53.701Z,1.70
2023-05-17T16:24:30.915Z,1.65
2023-05-17T16:27:05.226Z,1.88
2023-05-17T16:29:40.524Z,1.77
2023-05-17T16:32:13.256Z,1.42
2023-05-17T16:34:46.099Z,1.13
2023-05-17T16:37:18.736Z,1.00
2023-05-17T16:39:51.797Z,1.40
2023-05-17T16:42:27.138Z,1.60
2023-05-17T16:44:59.949Z,1.65
2023-05-17T16:47:32.874Z,2.00
2023-05-17T16:50:07.154Z,1.58
2023-05-17T16:52:39.874Z,1.35
2023-05-17T16:55:12.830Z,1.48
2023-05-17T16:57:45.591Z,1.58
2023-05-17T17:00:18.797Z,1.40
2023-05-17T17:02:51.666Z,1.67
2023-05-17T17:05:27.506Z,1.10
2023-05-17T17:08:00.300Z,1.92
2023-05-17T17:10:33.253Z,1.58
2023-05-17T17:13:05.758Z,1.77
2023-05-17T17:15:38.587Z,3.13
2023-05-17T17:18:11.423Z,1.42
2023-05-17T17:20:45.260Z,2.95
2023-05-17T17:23:17.773Z,1.33
2023-05-17T17:25:50.663Z,2.03
2023-05-17T17:28:23.867Z,1.30
2023-05-17T17:30:56.861Z,1.38
2023-05-17T17:33:29.492Z,2.83
2023-05-17T17:36:05.304Z,1.35
2023-05-17T17:38:38.176Z,1.88
2023-05-17T17:41:11.444Z,2.42
2023-05-17T17:43:47.027Z,1.83
2023-05-17T17:46:22.671Z,2.58
2023-05-17T17:48:56.952Z,1.80
2023-05-17T17:51:32.956Z,1.73
2023-05-17T17:54:07.400Z,3.28
2023-05-17T17:56:40.555Z,1.92
2023-05-17T17:59:13.369Z,1.73
2023-05-17T18:01:46.211Z,2.50
2023-05-17T18:04:18.856Z,1.50
2023-05-17T18:06:51.848Z,1.05
2023-05-17T18:09:24.700Z,1.95
2023-05-17T18:11:59.719Z,1.23
2023-05-17T18:14:33.764Z,2.05
2023-05-17T18:17:08.213Z,1.58
2023-05-17T18:19:41.031Z,1.88
2023-05-17T18:22:16.890Z,2.28
2023-05-17T18:24:51.762Z,1.63
2023-05-17T18:27:24.623Z,1.58
2023-05-17T18:29:57.265Z,1.33
2023-05-17T18:32:30.764Z,1.40
2023-05-17T18:35:05.777Z,2.05
2023-05-17T18:37:38.894Z,1.67
2023-05-17T18:40:12.154Z,2.05
2023-05-17T18:42:45.000Z,1.75
2023-05-17T18:45:17.786Z,1.20
2023-05-17T18:47:50.953Z,1.30
2023-05-17T18:50:23.502Z,2.30
2023-05-17T18:52:57.235Z,1.35
2023-05-17T18:55:29.889Z,1.20
2023-05-17T18:58:02.665Z,1.77
2023-05-17T19:00:35.444Z,1.45
2023-05-17T19:03:08.331Z,1.15
2023-05-17T19:05:40.964Z,1.27
2023-05-17T19:08:13.825Z,1.80
2023-05-17T19:10:46.808Z,1.27
2023-05-17T19:13:19.728Z,1.92
2023-05-17T19:15:52.773Z,2.17
2023-05-17T19:18:29.032Z,1.90
2023-05-17T19:21:04.033Z,2.08
2023-05-17T19:23:39.897Z,1.50
2023-05-17T19:26:12.521Z,1.67
2023-05-17T19:28:45.664Z,2.88
2023-05-17T19:31:21.343Z,1.85
2023-05-17T19:33:54.166Z,1.63
2023-05-17T19:36:26.713Z,1.65
2023-05-17T19:38:59.519Z,1.63
2023-05-17T19:41:32.069Z,1.75
2023-05-17T19:44:05.120Z,1.08
2023-05-17T19:46:37.821Z,1.08
2023-05-17T19:49:11.157Z,1.10
2023-05-17T19:51:43.873Z,1.60
2023-05-17T19:54:18.807Z,2.13
2023-05-17T19:56:51.638Z,3.00
2023-05-17T19:59:24.975Z,1.92
2023-05-17T20:01:57.895Z,1.50
2023-05-17T20:04:30.861Z,1.38
2023-05-17T20:07:03.374Z,2.60
2023-05-17T20:09:36.416Z,1.33
2023-05-17T20:12:09.345Z,0.93
2023-05-17T20:14:42.147Z,1.25
2023-05-17T20:17:14.738Z,1.38
2023-05-17T20:19:47.544Z,1.33
2023-05-17T20:22:21.027Z,1.55
2023-05-17T20:24:54.692Z,1.20
2023-05-17T20:27:29.003Z,2.05
2023-05-17T20:30:01.870Z,1.45
2023-05-17T20:32:34.555Z,1.35
2023-05-17T20:35:07.836Z,1.27
2023-05-17T20:37:40.518Z,1.17
2023-05-17T20:40:13.442Z,1.42
2023-05-17T20:42:47.397Z,1.38
2023-05-17T20:45:20.301Z,1.67
2023-05-17T20:47:52.889Z,1.35
2023-05-17T20:50:25.759Z,0.98
2023-05-17T20:52:58.343Z,1.45
2023-05-17T20:55:31.384Z,1.73
2023-05-17T20:58:03.912Z,0.77
2023-05-17T21:00:38.075Z,1.15
2023-05-17T21:03:11.251Z,1.35
2023-05-17T21:05:44.099Z,2.20
2023-05-17T21:08:16.629Z,2.00
2023-05-17T21:10:50.218Z,1.45
2023-05-17T21:13:23.984Z,1.25
2023-05-17T21:15:57.136Z,1.88
2023-05-17T21:18:29.703Z,1.63
2023-05-17T21:21:02.501Z,1.52
2023-05-17T21:23:35.118Z,1.85
2023-05-17T21:26:08.385Z,3.53
2023-05-17T21:28:41.025Z,1.80
2023-05-17T21:31:14.649Z,2.03
2023-05-17T21:33:47.267Z,2.03
2023-05-17T21:36:20.057Z,1.73
2023-05-17T21:38:52.602Z,1.70
2023-05-17T21:41:25.526Z,0.45
2023-05-17T21:43:58.074Z,0.98
2023-05-17T21:46:31.226Z,3.08
2023-05-17T21:49:03.773Z,1.42
2023-05-17T21:51:36.605Z,1.88
2023-05-17T21:54:09.329Z,2.53
2023-05-17T21:56:42.159Z,2.28
2023-05-17T21:59:14.664Z,1.50
2023-05-17T22:01:47.517Z,3.05
2023-05-17T22:04:20.056Z,0.70
2023-05-17T22:06:53.162Z,1.83
2023-05-17T22:09:25.711Z,1.85
2023-05-17T22:11:58.816Z,2.28
2023-05-17T22:14:33.409Z,1.48
2023-05-17T22:17:08.691Z,2.10
2023-05-17T22:19:41.684Z,2.05
2023-05-17T22:22:14.476Z,1.50
2023-05-17T22:24:47.072Z,1.33
2023-05-17T22:27:20.646Z,1.17
2023-05-17T22:29:53.171Z,2.00
2023-05-17T22:32:26.014Z,1.55
2023-05-17T22:34:58.563Z,1.60
2023-05-17T22:37:33.054Z,1.38
2023-05-17T22:40:08.178Z,1.00
2023-05-17T22:42:43.204Z,1.42
2023-05-17T22:45:15.813Z,1.17
2023-05-17T22:47:48.639Z,1.52
2023-05-17T22:50:24.620Z,0.77
2023-05-17T22:53:06.019Z,1.60
2023-05-17T22:55:38.593Z,0.85
2023-05-17T22:58:11.525Z,1.90
2023-05-17T23:00:44.422Z,0.52
2023-05-17T23:03:18.155Z,1.25
2023-05-17T23:06:02.044Z,1.40
2023-05-17T23:08:35.047Z,0.95
2023-05-17T23:11:07.681Z,1.95
2023-05-17T23:13:42.342Z,1.88
2023-05-17T23:16:14.912Z,1.77
2023-05-17T23:18:47.786Z,1.63
2023-05-17T23:21:20.713Z,0.95
2023-05-17T23:23:53.722Z,1.88
2023-05-17T23:26:28.409Z,1.88
2023-05-17T23:29:05.476Z,1.25
2023-05-17T23:31:38.657Z,1.23
2023-05-17T23:34:11.919Z,1.67
2023-05-17T23:36:44.406Z,1.33
2023-05-17T23:39:17.180Z,1.08
2023-05-17T23:41:51.873Z,1.23
2023-05-17T23:44:26.076Z,1.00
2023-05-17T23:47:00.009Z,0.90
2023-05-17T23:49:32.817Z,1.50
2023-05-17T23:52:10.930Z,1.67
2023-05-17T23:54:43.744Z,2.28
2023-05-17T23:57:16.590Z,1.85
2023-05-17T23:59:49.457Z,2.10
